sensor_id;sensor_type;location;lat;lon;timestamp;P1;P2;P0
75960;PMS7003;64644;48.914;2.254;2023-07-31T00:01:42;5.00;3.25;1.50
75960;PMS7003;64644;48.914;2.254;2023-07-31T00:04:07;5.25;4.00;2.00
75960;PMS7003;64644;48.914;2.254;2023-07-31T00:06:32;6.50;4.00;2.00
75960;PMS7003;64644;48.914;2.254;2023-07-31T00:08:58;4.00;4.00;3.00
75960;PMS7003;64644;48.914;2.254;2023-07-31T00:11:23;5.00;4.00;2.00
75960;PMS7003;64644;48.914;2.254;2023-07-31T00:13:48;2.25;2.25;2.00
75960;PMS7003;64644;48.914;2.254;2023-07-31T00:16:14;4.50;3.50;2.00
75960;PMS7003;64644;48.914;2.254;2023-07-31T00:18:39;2.25;2.00;1.75
75960;PMS7003;64644;48.914;2.254;2023-07-31T00:21:04;4.00;4.00;3.00
75960;PMS7003;64644;48.914;2.254;2023-07-31T00:23:30;2.75;2.75;2.00
75960;PMS7003;64644;48.914;2.254;2023-07-31T00:25:55;3.75;3.25;2.00
75960;PMS7003;64644;48.914;2.254;2023-07-31T00:28:20;3.50;3.00;2.00
75960;PMS7003;64644;48.914;2.254;2023-07-31T00:30:46;3.25;2.75;2.00
75960;PMS7003;64644;48.914;2.254;2023-07-31T00:33:11;3.00;3.00;2.00
75960;PMS7003;64644;48.914;2.254;2023-07-31T00:35:36;3.50;2.00;1.00
75960;PMS7003;64644;48.914;2.254;2023-07-31T00:38:02;3.50;3.50;2.25
75960;PMS7003;64644;48.914;2.254;2023-07-31T00:40:27;5.00;4.00;2.50
75960;PMS7003;64644;48.914;2.254;2023-07-31T00:42:52;4.00;2.25;1.75
75960;PMS7003;64644;48.914;2.254;2023-07-31T00:45:18;4.00;2.75;2.00
75960;PMS7003;64644;48.914;2.254;2023-07-31T00:47:43;3.75;3.75;2.75
75960;PMS7003;64644;48.914;2.254;2023-07-31T00:50:08;3.00;3.00;2.00
75960;PMS7003;64644;48.914;2.254;2023-07-31T00:52:35;2.25;2.00;2.00
75960;PMS7003;64644;48.914;2.254;2023-07-31T00:55:01;3.25;2.75;2.00
75960;PMS7003;64644;48.914;2.254;2023-07-31T00:57:26;3.00;3.00;2.00
75960;PMS7003;64644;48.914;2.254;2023-07-31T00:59:52;2.00;2.00;2.00
75960;PMS7003;64644;48.914;2.254;2023-07-31T01:02:17;4.00;3.50;2.50
75960;PMS7003;64644;48.914;2.254;2023-07-31T01:04:43;4.00;4.00;3.00
75960;PMS7003;64644;48.914;2.254;2023-07-31T01:07:14;3.00;3.00;2.25
75960;PMS7003;64644;48.914;2.254;2023-07-31T01:12:38;2.50;2.50;1.00
75960;PMS7003;64644;48.914;2.254;2023-07-31T01:15:07;2.00;2.00;1.00
75960;PMS7003;64644;48.914;2.254;2023-07-31T01:17:37;2.00;2.00;1.00
75960;PMS7003;64644;48.914;2.254;2023-07-31T01:20:04;3.00;3.00;1.75
75960;PMS7003;64644;48.914;2.254;2023-07-31T01:22:53;2.00;2.00;1.00
75960;PMS7003;64644;48.914;2.254;2023-07-31T01:28:46;3.50;2.00;1.25
75960;PMS7003;64644;48.914;2.254;2023-07-31T01:31:21;2.00;2.00;1.00
75960;PMS7003;64644;48.914;2.254;2023-07-31T01:33:49;1.50;1.50;1.00
75960;PMS7003;64644;48.914;2.254;2023-07-31T01:36:19;2.75;2.75;2.00
75960;PMS7003;64644;48.914;2.254;2023-07-31T01:38:45;4.75;3.50;1.75
75960;PMS7003;64644;48.914;2.254;2023-07-31T01:41:10;2.75;2.75;2.00
75960;PMS7003;64644;48.914;2.254;2023-07-31T01:43:36;1.00;1.00;1.00
75960;PMS7003;64644;48.914;2.254;2023-07-31T01:46:01;1.75;1.75;1.50
75960;PMS7003;64644;48.914;2.254;2023-07-31T01:48:26;2.75;2.00;1.00
75960;PMS7003;64644;48.914;2.254;2023-07-31T01:50:52;3.00;1.00;1.00
75960;PMS7003;64644;48.914;2.254;2023-07-31T01:53:17;2.75;1.75;1.50
75960;PMS7003;64644;48.914;2.254;2023-07-31T01:55:42;2.00;1.50;0.75
75960;PMS7003;64644;48.914;2.254;2023-07-31T01:58:08;1.00;1.00;0.50
75960;PMS7003;64644;48.914;2.254;2023-07-31T02:00:33;1.50;1.50;1.00
75960;PMS7003;64644;48.914;2.254;2023-07-31T02:02:59;2.00;2.00;1.00
75960;PMS7003;64644;48.914;2.254;2023-07-31T02:05:24;1.00;1.00;0.75
75960;PMS7003;64644;48.914;2.254;2023-07-31T02:07:50;2.75;2.00;1.00
75960;PMS7003;64644;48.914;2.254;2023-07-31T02:10:15;4.50;3.25;1.50
75960;PMS7003;64644;48.914;2.254;2023-07-31T02:12:40;2.75;2.00;1.00
75960;PMS7003;64644;48.914;2.254;2023-07-31T02:15:06;1.00;1.00;0.50
75960;PMS7003;64644;48.914;2.254;2023-07-31T02:17:31;3.50;2.00;1.00
75960;PMS7003;64644;48.914;2.254;2023-07-31T02:19:57;2.00;2.00;1.00
75960;PMS7003;64644;48.914;2.254;2023-07-31T02:22:22;3.75;2.00;1.00
75960;PMS7003;64644;48.914;2.254;2023-07-31T02:24:47;3.00;2.00;1.25
75960;PMS7003;64644;48.914;2.254;2023-07-31T02:27:13;1.75;1.50;1.00
75960;PMS7003;64644;48.914;2.254;2023-07-31T02:29:38;1.00;1.00;0.75
75960;PMS7003;64644;48.914;2.254;2023-07-31T02:32:03;1.00;1.00;1.00
75960;PMS7003;64644;48.914;2.254;2023-07-31T02:34:29;3.00;1.25;1.00
75960;PMS7003;64644;48.914;2.254;2023-07-31T02:36:55;2.00;1.00;1.00
75960;PMS7003;64644;48.914;2.254;2023-07-31T02:39:20;1.00;1.00;1.00
75960;PMS7003;64644;48.914;2.254;2023-07-31T02:41:46;2.25;2.00;1.00
75960;PMS7003;64644;48.914;2.254;2023-07-31T02:44:11;1.25;0.25;0.25
75960;PMS7003;64644;48.914;2.254;2023-07-31T02:46:39;1.25;1.25;1.00
75960;PMS7003;64644;48.914;2.254;2023-07-31T02:49:04;1.50;1.00;0.75
75960;PMS7003;64644;48.914;2.254;2023-07-31T02:51:29;1.75;1.00;1.00
75960;PMS7003;64644;48.914;2.254;2023-07-31T02:53:55;2.00;2.00;1.00
75960;PMS7003;64644;48.914;2.254;2023-07-31T02:56:20;3.25;3.00;1.50
75960;PMS7003;64644;48.914;2.254;2023-07-31T02:58:45;2.00;2.00;1.00
75960;PMS7003;64644;48.914;2.254;2023-07-31T03:01:11;3.75;2.50;1.00
75960;PMS7003;64644;48.914;2.254;2023-07-31T03:03:36;1.00;1.00;1.00
75960;PMS7003;64644;48.914;2.254;2023-07-31T03:06:01;1.00;1.00;1.00
75960;PMS7003;64644;48.914;2.254;2023-07-31T03:08:27;2.75;1.50;1.00
75960;PMS7003;64644;48.914;2.254;2023-07-31T03:10:52;1.25;1.25;1.00
75960;PMS7003;64644;48.914;2.254;2023-07-31T03:13:17;2.00;2.00;1.00
75960;PMS7003;64644;48.914;2.254;2023-07-31T03:15:43;1.00;1.00;0.75
75960;PMS7003;64644;48.914;2.254;2023-07-31T03:18:08;1.00;1.00;1.00
75960;PMS7003;64644;48.914;2.254;2023-07-31T03:20:34;3.00;2.00;1.00
75960;PMS7003;64644;48.914;2.254;2023-07-31T03:22:59;1.00;1.00;1.00
75960;PMS7003;64644;48.914;2.254;2023-07-31T03:25:24;1.75;1.25;0.50
75960;PMS7003;64644;48.914;2.254;2023-07-31T03:27:50;2.75;1.00;1.00
75960;PMS7003;64644;48.914;2.254;2023-07-31T03:30:15;1.00;1.00;0.75
75960;PMS7003;64644;48.914;2.254;2023-07-31T03:32:40;1.75;1.75;1.00
75960;PMS7003;64644;48.914;2.254;2023-07-31T03:35:06;2.00;1.00;1.00
75960;PMS7003;64644;48.914;2.254;2023-07-31T03:37:31;1.50;1.50;0.25
75960;PMS7003;64644;48.914;2.254;2023-07-31T03:39:57;1.00;0.00;0.00
75960;PMS7003;64644;48.914;2.254;2023-07-31T03:42:22;3.00;2.00;1.00
75960;PMS7003;64644;48.914;2.254;2023-07-31T03:44:47;1.50;1.25;0.50
75960;PMS7003;64644;48.914;2.254;2023-07-31T03:47:13;1.75;1.00;0.00
75960;PMS7003;64644;48.914;2.254;2023-07-31T03:49:38;2.25;1.25;0.25
75960;PMS7003;64644;48.914;2.254;2023-07-31T03:52:04;1.00;1.00;0.75
75960;PMS7003;64644;48.914;2.254;2023-07-31T03:54:29;2.00;2.00;1.25
75960;PMS7003;64644;48.914;2.254;2023-07-31T03:56:54;4.00;3.00;1.00
75960;PMS7003;64644;48.914;2.254;2023-07-31T03:59:20;1.00;1.00;0.00
75960;PMS7003;64644;48.914;2.254;2023-07-31T04:01:45;1.00;1.00;0.75
75960;PMS7003;64644;48.914;2.254;2023-07-31T04:04:10;2.50;0.00;0.00
75960;PMS7003;64644;48.914;2.254;2023-07-31T04:06:36;1.75;1.00;1.00
75960;PMS7003;64644;48.914;2.254;2023-07-31T04:09:02;3.00;2.25;1.50
75960;PMS7003;64644;48.914;2.254;2023-07-31T04:11:27;2.50;1.50;0.50
75960;PMS7003;64644;48.914;2.254;2023-07-31T04:13:53;3.50;2.00;1.00
75960;PMS7003;64644;48.914;2.254;2023-07-31T04:16:18;3.00;3.00;1.00
75960;PMS7003;64644;48.914;2.254;2023-07-31T04:18:43;0.50;0.50;0.00
75960;PMS7003;64644;48.914;2.254;2023-07-31T04:21:09;3.00;2.00;1.00
75960;PMS7003;64644;48.914;2.254;2023-07-31T04:23:35;1.75;1.75;1.00
75960;PMS7003;64644;48.914;2.254;2023-07-31T04:26:00;3.00;3.00;1.00
75960;PMS7003;64644;48.914;2.254;2023-07-31T04:28:25;0.25;0.25;0.00
75960;PMS7003;64644;48.914;2.254;2023-07-31T04:30:51;1.00;1.00;1.00
75960;PMS7003;64644;48.914;2.254;2023-07-31T04:33:16;3.00;3.00;1.25
75960;PMS7003;64644;48.914;2.254;2023-07-31T04:35:42;5.00;2.50;1.00
75960;PMS7003;64644;48.914;2.254;2023-07-31T04:38:16;1.50;1.50;1.00
75960;PMS7003;64644;48.914;2.254;2023-07-31T04:40:44;3.00;2.75;1.00
75960;PMS7003;64644;48.914;2.254;2023-07-31T04:43:10;2.00;2.00;1.25
75960;PMS7003;64644;48.914;2.254;2023-07-31T04:45:35;1.25;1.25;1.00
75960;PMS7003;64644;48.914;2.254;2023-07-31T04:48:00;5.25;4.25;1.00
75960;PMS7003;64644;48.914;2.254;2023-07-31T04:50:26;5.00;4.00;2.00
75960;PMS7003;64644;48.914;2.254;2023-07-31T04:52:51;2.50;2.25;1.75
75960;PMS7003;64644;48.914;2.254;2023-07-31T04:55:16;3.25;3.25;1.25
75960;PMS7003;64644;48.914;2.254;2023-07-31T04:57:42;3.00;2.50;1.50
75960;PMS7003;64644;48.914;2.254;2023-07-31T05:00:07;2.25;2.25;1.00
75960;PMS7003;64644;48.914;2.254;2023-07-31T05:02:33;3.00;3.00;1.50
75960;PMS7003;64644;48.914;2.254;2023-07-31T05:04:58;3.00;3.00;1.50
75960;PMS7003;64644;48.914;2.254;2023-07-31T05:07:24;1.75;1.75;1.00
75960;PMS7003;64644;48.914;2.254;2023-07-31T05:09:49;5.00;3.50;1.50
75960;PMS7003;64644;48.914;2.254;2023-07-31T05:12:14;3.00;2.00;1.25
75960;PMS7003;64644;48.914;2.254;2023-07-31T05:14:40;3.25;3.00;1.50
75960;PMS7003;64644;48.914;2.254;2023-07-31T05:17:05;5.00;2.75;2.00
75960;PMS7003;64644;48.914;2.254;2023-07-31T05:19:30;3.50;3.50;1.75
75960;PMS7003;64644;48.914;2.254;2023-07-31T05:21:56;3.00;3.00;1.25
75960;PMS7003;64644;48.914;2.254;2023-07-31T05:24:21;1.00;1.00;1.00
75960;PMS7003;64644;48.914;2.254;2023-07-31T05:26:46;1.00;1.00;1.00
75960;PMS7003;64644;48.914;2.254;2023-07-31T05:29:12;2.75;2.75;1.00
75960;PMS7003;64644;48.914;2.254;2023-07-31T05:31:37;4.75;4.00;2.00
75960;PMS7003;64644;48.914;2.254;2023-07-31T05:34:03;4.00;3.75;2.00
75960;PMS7003;64644;48.914;2.254;2023-07-31T05:36:29;2.50;2.50;1.00
75960;PMS7003;64644;48.914;2.254;2023-07-31T05:38:54;4.75;3.75;2.00
75960;PMS7003;64644;48.914;2.254;2023-07-31T05:41:19;5.00;5.00;2.25
75960;PMS7003;64644;48.914;2.254;2023-07-31T05:43:45;4.50;3.75;3.00
75960;PMS7003;64644;48.914;2.254;2023-07-31T05:46:10;6.00;5.00;3.00
75960;PMS7003;64644;48.914;2.254;2023-07-31T05:48:36;5.00;3.50;2.50
75960;PMS7003;64644;48.914;2.254;2023-07-31T05:51:02;5.00;5.00;3.00
75960;PMS7003;64644;48.914;2.254;2023-07-31T05:53:28;6.75;5.00;3.00
75960;PMS7003;64644;48.914;2.254;2023-07-31T05:55:53;4.00;4.00;3.00
75960;PMS7003;64644;48.914;2.254;2023-07-31T05:58:18;4.75;4.50;2.75
75960;PMS7003;64644;48.914;2.254;2023-07-31T06:00:44;3.75;3.75;2.75
75960;PMS7003;64644;48.914;2.254;2023-07-31T06:03:09;4.50;4.50;3.00
75960;PMS7003;64644;48.914;2.254;2023-07-31T06:05:34;4.50;4.50;2.00
75960;PMS7003;64644;48.914;2.254;2023-07-31T06:08:00;8.00;6.00;3.25
75960;PMS7003;64644;48.914;2.254;2023-07-31T06:10:25;4.00;4.00;2.00
75960;PMS7003;64644;48.914;2.254;2023-07-31T06:12:51;4.00;3.00;2.25
75960;PMS7003;64644;48.914;2.254;2023-07-31T06:15:16;5.00;5.00;3.50
75960;PMS7003;64644;48.914;2.254;2023-07-31T06:17:44;5.00;5.00;2.75
75960;PMS7003;64644;48.914;2.254;2023-07-31T06:20:09;4.75;4.00;2.00
75960;PMS7003;64644;48.914;2.254;2023-07-31T06:22:35;3.75;3.50;2.50
75960;PMS7003;64644;48.914;2.254;2023-07-31T06:25:00;3.75;3.75;2.00
75960;PMS7003;64644;48.914;2.254;2023-07-31T06:27:25;3.25;3.00;2.00
75960;PMS7003;64644;48.914;2.254;2023-07-31T06:29:51;4.00;4.00;2.25
75960;PMS7003;64644;48.914;2.254;2023-07-31T06:32:16;6.00;5.00;3.00
75960;PMS7003;64644;48.914;2.254;2023-07-31T06:34:42;3.75;3.25;2.25
75960;PMS7003;64644;48.914;2.254;2023-07-31T06:37:07;7.00;5.25;2.75
75960;PMS7003;64644;48.914;2.254;2023-07-31T06:39:32;5.50;3.50;3.00
75960;PMS7003;64644;48.914;2.254;2023-07-31T06:41:58;5.00;5.00;3.00
75960;PMS7003;64644;48.914;2.254;2023-07-31T06:44:23;4.50;4.00;2.50
75960;PMS7003;64644;48.914;2.254;2023-07-31T06:46:48;8.25;5.75;3.50
75960;PMS7003;64644;48.914;2.254;2023-07-31T06:49:14;3.75;3.75;2.75
75960;PMS7003;64644;48.914;2.254;2023-07-31T06:51:42;6.25;5.00;4.00
75960;PMS7003;64644;48.914;2.254;2023-07-31T06:54:09;6.25;4.25;3.00
75960;PMS7003;64644;48.914;2.254;2023-07-31T06:56:34;5.25;5.25;3.75
75960;PMS7003;64644;48.914;2.254;2023-07-31T06:58:59;5.00;5.00;3.50
75960;PMS7003;64644;48.914;2.254;2023-07-31T07:01:25;5.50;5.50;4.00
75960;PMS7003;64644;48.914;2.254;2023-07-31T07:03:50;8.00;6.75;4.00
75960;PMS7003;64644;48.914;2.254;2023-07-31T07:06:16;9.50;7.75;5.00
75960;PMS7003;64644;48.914;2.254;2023-07-31T07:08:42;6.50;6.50;3.00
75960;PMS7003;64644;48.914;2.254;2023-07-31T07:11:08;5.75;5.75;3.00
75960;PMS7003;64644;48.914;2.254;2023-07-31T07:13:33;5.00;4.00;2.75
75960;PMS7003;64644;48.914;2.254;2023-07-31T07:15:58;5.00;5.00;4.00
75960;PMS7003;64644;48.914;2.254;2023-07-31T07:18:24;6.50;6.00;3.00
75960;PMS7003;64644;48.914;2.254;2023-07-31T07:20:50;7.00;6.00;4.00
75960;PMS7003;64644;48.914;2.254;2023-07-31T07:23:16;5.75;4.00;2.00
75960;PMS7003;64644;48.914;2.254;2023-07-31T07:25:42;6.25;5.50;3.00
75960;PMS7003;64644;48.914;2.254;2023-07-31T07:28:08;6.25;5.25;4.00
75960;PMS7003;64644;48.914;2.254;2023-07-31T07:30:33;6.25;5.50;3.75
75960;PMS7003;64644;48.914;2.254;2023-07-31T07:32:59;5.75;5.50;4.00
75960;PMS7003;64644;48.914;2.254;2023-07-31T07:35:25;6.75;5.50;5.00
75960;PMS7003;64644;48.914;2.254;2023-07-31T07:37:50;12.50;5.00;3.00
75960;PMS7003;64644;48.914;2.254;2023-07-31T07:40:15;5.75;5.75;4.00
75960;PMS7003;64644;48.914;2.254;2023-07-31T07:42:41;7.00;6.75;3.00
75960;PMS7003;64644;48.914;2.254;2023-07-31T07:45:07;5.50;5.50;4.25
75960;PMS7003;64644;48.914;2.254;2023-07-31T07:47:33;6.50;5.00;3.75
75960;PMS7003;64644;48.914;2.254;2023-07-31T07:49:58;5.75;5.75;3.75
75960;PMS7003;64644;48.914;2.254;2023-07-31T07:52:23;6.75;6.75;5.00
75960;PMS7003;64644;48.914;2.254;2023-07-31T07:54:49;6.50;5.50;3.00
75960;PMS7003;64644;48.914;2.254;2023-07-31T07:57:15;7.50;6.25;3.50
75960;PMS7003;64644;48.914;2.254;2023-07-31T07:59:40;7.25;7.25;5.50
75960;PMS7003;64644;48.914;2.254;2023-07-31T08:02:06;10.50;7.00;3.50
75960;PMS7003;64644;48.914;2.254;2023-07-31T08:04:31;6.00;6.00;4.00
75960;PMS7003;64644;48.914;2.254;2023-07-31T08:06:57;7.00;5.50;4.00
75960;PMS7003;64644;48.914;2.254;2023-07-31T08:09:22;6.25;6.00;3.25
75960;PMS7003;64644;48.914;2.254;2023-07-31T08:11:47;8.00;7.00;4.00
75960;PMS7003;64644;48.914;2.254;2023-07-31T08:14:13;5.00;5.00;3.00
75960;PMS7003;64644;48.914;2.254;2023-07-31T08:16:38;8.00;8.00;4.00
75960;PMS7003;64644;48.914;2.254;2023-07-31T08:19:04;9.75;6.25;3.50
75960;PMS7003;64644;48.914;2.254;2023-07-31T08:21:29;4.75;4.00;2.00
75960;PMS7003;64644;48.914;2.254;2023-07-31T08:23:54;5.75;4.75;4.00
75960;PMS7003;64644;48.914;2.254;2023-07-31T08:26:20;6.25;6.00;4.00
75960;PMS7003;64644;48.914;2.254;2023-07-31T08:28:46;9.75;7.50;4.25
75960;PMS7003;64644;48.914;2.254;2023-07-31T08:31:12;4.75;4.50;3.00
75960;PMS7003;64644;48.914;2.254;2023-07-31T08:33:37;7.00;7.00;5.00
75960;PMS7003;64644;48.914;2.254;2023-07-31T08:36:03;5.00;4.50;3.00
75960;PMS7003;64644;48.914;2.254;2023-07-31T08:38:30;3.00;3.00;3.00
75960;PMS7003;64644;48.914;2.254;2023-07-31T08:40:58;5.75;5.75;3.00
75960;PMS7003;64644;48.914;2.254;2023-07-31T08:43:26;8.50;6.25;3.50
75960;PMS7003;64644;48.914;2.254;2023-07-31T08:45:52;6.00;5.00;3.50
75960;PMS7003;64644;48.914;2.254;2023-07-31T08:48:19;5.25;5.00;4.00
75960;PMS7003;64644;48.914;2.254;2023-07-31T08:50:45;6.75;4.75;2.75
75960;PMS7003;64644;48.914;2.254;2023-07-31T08:53:11;6.00;6.00;3.00
75960;PMS7003;64644;48.914;2.254;2023-07-31T08:55:37;5.00;5.00;3.00
75960;PMS7003;64644;48.914;2.254;2023-07-31T08:58:03;8.50;5.75;3.75
75960;PMS7003;64644;48.914;2.254;2023-07-31T09:00:30;9.00;5.50;3.00
75960;PMS7003;64644;48.914;2.254;2023-07-31T09:05:53;7.00;5.75;4.00
75960;PMS7003;64644;48.914;2.254;2023-07-31T09:08:21;4.75;4.00;3.00
75960;PMS7003;64644;48.914;2.254;2023-07-31T09:10:47;4.50;3.75;3.00
75960;PMS7003;64644;48.914;2.254;2023-07-31T09:13:16;4.00;4.00;3.00
75960;PMS7003;64644;48.914;2.254;2023-07-31T09:15:45;6.00;6.00;3.50
75960;PMS7003;64644;48.914;2.254;2023-07-31T09:18:11;4.75;4.75;3.00
75960;PMS7003;64644;48.914;2.254;2023-07-31T09:20:37;6.75;3.75;2.00
75960;PMS7003;64644;48.914;2.254;2023-07-31T09:23:06;5.00;4.00;2.50
75960;PMS7003;64644;48.914;2.254;2023-07-31T09:25:36;5.50;3.25;2.00
75960;PMS7003;64644;48.914;2.254;2023-07-31T09:28:06;5.25;4.75;3.00
75960;PMS7003;64644;48.914;2.254;2023-07-31T09:33:14;3.75;3.75;2.00
75960;PMS7003;64644;48.914;2.254;2023-07-31T09:35:40;4.50;4.50;3.00
75960;PMS7003;64644;48.914;2.254;2023-07-31T09:38:07;3.00;3.00;1.25
75960;PMS7003;64644;48.914;2.254;2023-07-31T09:40:35;5.50;5.00;4.00
75960;PMS7003;64644;48.914;2.254;2023-07-31T09:43:05;5.75;4.00;3.25
75960;PMS7003;64644;48.914;2.254;2023-07-31T09:45:36;4.00;2.75;2.00
75960;PMS7003;64644;48.914;2.254;2023-07-31T09:50:38;6.50;5.50;3.75
75960;PMS7003;64644;48.914;2.254;2023-07-31T09:53:05;5.50;5.50;4.00
75960;PMS7003;64644;48.914;2.254;2023-07-31T09:55:31;6.25;6.25;4.00
75960;PMS7003;64644;48.914;2.254;2023-07-31T09:57:57;6.25;5.50;3.50
75960;PMS7003;64644;48.914;2.254;2023-07-31T10:00:23;5.00;4.25;3.00
75960;PMS7003;64644;48.914;2.254;2023-07-31T10:02:50;5.50;5.50;4.00
75960;PMS7003;64644;48.914;2.254;2023-07-31T10:05:16;5.00;3.25;2.50
75960;PMS7003;64644;48.914;2.254;2023-07-31T10:07:43;5.75;5.75;3.75
75960;PMS7003;64644;48.914;2.254;2023-07-31T10:10:15;4.50;4.50;3.00
75960;PMS7003;64644;48.914;2.254;2023-07-31T10:12:41;7.50;5.50;3.00
75960;PMS7003;64644;48.914;2.254;2023-07-31T10:15:08;6.25;4.00;2.50
75960;PMS7003;64644;48.914;2.254;2023-07-31T10:17:35;4.75;4.25;3.00
75960;PMS7003;64644;48.914;2.254;2023-07-31T10:20:01;6.25;5.00;3.00
75960;PMS7003;64644;48.914;2.254;2023-07-31T10:22:29;7.25;5.50;4.00
75960;PMS7003;64644;48.914;2.254;2023-07-31T10:24:57;8.00;6.75;4.00
75960;PMS7003;64644;48.914;2.254;2023-07-31T10:27:23;6.50;5.75;4.75
75960;PMS7003;64644;48.914;2.254;2023-07-31T10:29:49;6.00;4.00;3.00
75960;PMS7003;64644;48.914;2.254;2023-07-31T10:32:15;5.25;5.00;4.00
75960;PMS7003;64644;48.914;2.254;2023-07-31T10:34:42;4.00;4.00;2.75
75960;PMS7003;64644;48.914;2.254;2023-07-31T10:37:19;5.00;5.00;3.00
75960;PMS7003;64644;48.914;2.254;2023-07-31T10:39:57;5.25;5.25;3.50
75960;PMS7003;64644;48.914;2.254;2023-07-31T10:42:32;5.50;5.00;3.50
75960;PMS7003;64644;48.914;2.254;2023-07-31T10:45:05;5.00;4.00;3.00
75960;PMS7003;64644;48.914;2.254;2023-07-31T10:47:39;6.00;5.00;3.50
75960;PMS7003;64644;48.914;2.254;2023-07-31T10:50:21;6.75;5.50;4.00
75960;PMS7003;64644;48.914;2.254;2023-07-31T10:57:47;5.25;3.75;2.50
75960;PMS7003;64644;48.914;2.254;2023-07-31T11:00:27;6.00;6.00;4.00
75960;PMS7003;64644;48.914;2.254;2023-07-31T11:02:57;8.00;7.25;5.00
75960;PMS7003;64644;48.914;2.254;2023-07-31T11:05:39;3.50;3.50;2.25
75960;PMS7003;64644;48.914;2.254;2023-07-31T11:10:41;5.50;3.75;2.25
75960;PMS7003;64644;48.914;2.254;2023-07-31T11:13:07;8.00;5.75;3.25
75960;PMS7003;64644;48.914;2.254;2023-07-31T11:15:33;8.75;7.25;3.50
75960;PMS7003;64644;48.914;2.254;2023-07-31T11:17:59;6.00;5.25;3.50
75960;PMS7003;64644;48.914;2.254;2023-07-31T11:20:29;5.75;4.00;3.00
75960;PMS7003;64644;48.914;2.254;2023-07-31T11:22:57;5.50;4.00;2.75
75960;PMS7003;64644;48.914;2.254;2023-07-31T11:25:33;5.25;5.25;3.50
75960;PMS7003;64644;48.914;2.254;2023-07-31T11:28:06;6.25;5.00;4.00
75960;PMS7003;64644;48.914;2.254;2023-07-31T11:30:32;8.25;8.25;4.50
75960;PMS7003;64644;48.914;2.254;2023-07-31T11:32:59;7.00;5.75;4.00
75960;PMS7003;64644;48.914;2.254;2023-07-31T11:35:26;6.00;6.00;5.00
75960;PMS7003;64644;48.914;2.254;2023-07-31T11:37:51;4.75;4.75;3.00
75960;PMS7003;64644;48.914;2.254;2023-07-31T11:40:17;10.25;5.25;4.00
75960;PMS7003;64644;48.914;2.254;2023-07-31T11:42:43;6.25;6.25;3.50
75960;PMS7003;64644;48.914;2.254;2023-07-31T11:45:08;7.00;7.00;4.00
75960;PMS7003;64644;48.914;2.254;2023-07-31T11:47:35;6.00;5.00;3.75
75960;PMS7003;64644;48.914;2.254;2023-07-31T11:50:02;7.50;6.50;4.50
75960;PMS7003;64644;48.914;2.254;2023-07-31T11:52:29;9.50;8.25;5.75
75960;PMS7003;64644;48.914;2.254;2023-07-31T11:54:59;7.00;7.00;5.00
75960;PMS7003;64644;48.914;2.254;2023-07-31T11:57:25;7.00;6.00;4.00
75960;PMS7003;64644;48.914;2.254;2023-07-31T11:59:50;6.00;5.50;4.00
75960;PMS7003;64644;48.914;2.254;2023-07-31T12:02:17;5.50;5.50;3.75
75960;PMS7003;64644;48.914;2.254;2023-07-31T12:04:43;3.00;2.00;1.00
75960;PMS7003;64644;48.914;2.254;2023-07-31T12:07:10;7.00;6.00;4.75
75960;PMS7003;64644;48.914;2.254;2023-07-31T12:09:37;5.50;5.50;4.00
75960;PMS7003;64644;48.914;2.254;2023-07-31T12:12:02;4.00;4.00;3.00
75960;PMS7003;64644;48.914;2.254;2023-07-31T12:14:33;6.50;5.00;3.75
75960;PMS7003;64644;48.914;2.254;2023-07-31T12:16:59;7.25;6.00;4.00
75960;PMS7003;64644;48.914;2.254;2023-07-31T12:19:28;6.75;4.00;3.00
75960;PMS7003;64644;48.914;2.254;2023-07-31T12:21:57;5.00;5.00;4.00
75960;PMS7003;64644;48.914;2.254;2023-07-31T12:24:25;8.50;6.25;4.00
75960;PMS7003;64644;48.914;2.254;2023-07-31T12:26:51;7.75;7.25;5.00
75960;PMS7003;64644;48.914;2.254;2023-07-31T12:29:17;5.00;5.00;3.75
75960;PMS7003;64644;48.914;2.254;2023-07-31T12:31:43;8.50;7.00;4.00
75960;PMS7003;64644;48.914;2.254;2023-07-31T12:34:26;6.75;5.00;4.00
75960;PMS7003;64644;48.914;2.254;2023-07-31T12:36:53;5.50;5.50;4.00
75960;PMS7003;64644;48.914;2.254;2023-07-31T12:39:19;5.75;4.50;3.00
75960;PMS7003;64644;48.914;2.254;2023-07-31T12:41:44;6.25;6.00;3.75
75960;PMS7003;64644;48.914;2.254;2023-07-31T12:44:09;8.00;6.50;4.00
75960;PMS7003;64644;48.914;2.254;2023-07-31T12:46:35;6.00;6.00;4.75
75960;PMS7003;64644;48.914;2.254;2023-07-31T12:49:01;8.50;6.00;5.00
75960;PMS7003;64644;48.914;2.254;2023-07-31T12:51:27;4.75;4.75;2.00
75960;PMS7003;64644;48.914;2.254;2023-07-31T12:53:52;7.50;4.50;3.25
75960;PMS7003;64644;48.914;2.254;2023-07-31T12:56:18;5.00;3.75;3.50
75960;PMS7003;64644;48.914;2.254;2023-07-31T12:58:43;6.50;6.00;4.00
75960;PMS7003;64644;48.914;2.254;2023-07-31T13:01:08;5.25;5.25;4.00
75960;PMS7003;64644;48.914;2.254;2023-07-31T13:03:34;7.25;6.50;5.00
75960;PMS7003;64644;48.914;2.254;2023-07-31T13:05:59;5.75;5.75;3.00
75960;PMS7003;64644;48.914;2.254;2023-07-31T13:08:24;3.50;3.50;2.50
75960;PMS7003;64644;48.914;2.254;2023-07-31T13:10:50;6.00;6.00;4.00
75960;PMS7003;64644;48.914;2.254;2023-07-31T13:13:15;7.50;6.75;4.00
75960;PMS7003;64644;48.914;2.254;2023-07-31T13:15:41;6.00;5.00;4.00
75960;PMS7003;64644;48.914;2.254;2023-07-31T13:18:06;5.75;5.50;3.75
75960;PMS7003;64644;48.914;2.254;2023-07-31T13:20:31;7.00;6.00;4.00
75960;PMS7003;64644;48.914;2.254;2023-07-31T13:22:57;6.75;6.50;4.00
75960;PMS7003;64644;48.914;2.254;2023-07-31T13:25:22;6.50;4.75;4.00
75960;PMS7003;64644;48.914;2.254;2023-07-31T13:27:47;5.00;5.00;3.00
75960;PMS7003;64644;48.914;2.254;2023-07-31T13:30:13;6.25;5.50;3.75
75960;PMS7003;64644;48.914;2.254;2023-07-31T13:32:38;5.00;5.00;3.00
75960;PMS7003;64644;48.914;2.254;2023-07-31T13:35:07;9.25;5.25;3.75
75960;PMS7003;64644;48.914;2.254;2023-07-31T13:37:33;6.00;6.00;3.00
75960;PMS7003;64644;48.914;2.254;2023-07-31T13:39:59;4.00;4.00;2.75
75960;PMS7003;64644;48.914;2.254;2023-07-31T13:42:25;2.75;2.75;2.50
75960;PMS7003;64644;48.914;2.254;2023-07-31T13:44:50;4.00;4.00;2.25
75960;PMS7003;64644;48.914;2.254;2023-07-31T13:47:16;3.25;3.25;2.25
75960;PMS7003;64644;48.914;2.254;2023-07-31T13:49:41;4.25;4.25;3.00
75960;PMS7003;64644;48.914;2.254;2023-07-31T13:52:08;3.50;3.50;2.75
75960;PMS7003;64644;48.914;2.254;2023-07-31T13:54:33;3.00;3.00;2.25
75960;PMS7003;64644;48.914;2.254;2023-07-31T13:56:59;5.00;4.00;3.00
75960;PMS7003;64644;48.914;2.254;2023-07-31T13:59:24;4.75;4.75;3.00
75960;PMS7003;64644;48.914;2.254;2023-07-31T14:01:50;5.25;5.25;3.00
75960;PMS7003;64644;48.914;2.254;2023-07-31T14:04:15;4.25;4.00;3.00
75960;PMS7003;64644;48.914;2.254;2023-07-31T14:06:42;6.75;5.50;3.25
75960;PMS7003;64644;48.914;2.254;2023-07-31T14:09:07;5.75;5.00;2.50
75960;PMS7003;64644;48.914;2.254;2023-07-31T14:11:33;4.00;4.00;3.00
75960;PMS7003;64644;48.914;2.254;2023-07-31T14:13:59;4.50;3.00;2.00
75960;PMS7003;64644;48.914;2.254;2023-07-31T14:16:24;4.50;3.50;2.50
75960;PMS7003;64644;48.914;2.254;2023-07-31T14:18:50;4.00;4.00;2.50
75960;PMS7003;64644;48.914;2.254;2023-07-31T14:21:15;3.25;3.25;2.00
75960;PMS7003;64644;48.914;2.254;2023-07-31T14:23:40;4.00;3.75;2.50
75960;PMS7003;64644;48.914;2.254;2023-07-31T14:26:06;7.50;6.25;4.00
75960;PMS7003;64644;48.914;2.254;2023-07-31T14:28:32;6.50;4.00;3.25
75960;PMS7003;64644;48.914;2.254;2023-07-31T14:30:57;4.00;4.00;3.00
75960;PMS7003;64644;48.914;2.254;2023-07-31T14:33:23;6.75;5.00;3.25
75960;PMS7003;64644;48.914;2.254;2023-07-31T14:35:48;5.75;4.75;2.75
75960;PMS7003;64644;48.914;2.254;2023-07-31T14:38:14;6.25;4.75;2.75
75960;PMS7003;64644;48.914;2.254;2023-07-31T14:40:39;5.25;4.25;3.00